Pagina principale
METAR-TAF:

METAR-TAF

Aeroporti :

Aeroporto di Reggio Calabria

Reggio Calabria, Italia

latitudine: 38-04N, longitudine: 015-39E, altezza: 11 m

Osservazione

Il bollettino è stato emesso 32 minuti fa, alle 09:20 UTC
Vento 10 kt da sud/sud-ovest
Temperature 16°C
Umidità 77%
Pressione 1015 hPa
Visibilità 10 km o più

METAR: LICR 090920Z AUTO 20010KT 9999 NCD 16/12 Q1015

Ora: 10:52 (09:52 UTC)

Previsione

Il bollettino è stato emesso 4 ore e 52 minuti fa, alle 05:00 UTC
Previsione valida dal 09 alle 06 UTC al 10 alle 06 UTC
Vento 8 kt da sud-ovest
Visibilità 10 km o più
Nubi sparse ad un'altezza di 3000 ft

TAF: LICR 090500Z 0906/1006 22008KT 9999 SCT030

Osservazioni e previsioni meteorologiche di più di 4000 aeroporti (messaggi METAR e TAF).

Le stazioni disponibili sono rappresentate dai dischi gialli e rossi sulla carta.

Puntare il mouse per vedere il nome della stazione.

Clicca sopra per visualizzare le osservazioni e previsioni meteorologiche.

Per cambiare la mappa : fare clic sui pulsanti verdi con una croce nera per ingrandire, il pulsante verde con un trattino per diminuire, o sulla freccia verde per le mappe adiacenti.


METAR-TAF: